Time;durP1;ratioP1;P1;durP2;ratioP2;P2;SDS_P1;SDS_P2;PMS_P1;PMS_P2;Temp;Humidity;BMP_temperature;BMP_pressure;BME280_temperature;BME280_humidity;BME280_pressure;Samples;Min_cycle;Max_cycle;Signal;HPM_P1;HPM_P2
2022/04/02 00:03:55;;;;;;;5.93;4.07;;;;;1.10;94844.00;;;;8345814;28;20256;-64
2022/04/02 00:08:00;;;;;;;23.17;6.93;;;;;1.10;94841.00;;;;8344518;28;20236;-65
2022/04/02 00:12:03;;;;;;;6.83;4.27;;;;;1.20;94842.00;;;;8338639;28;20226;-65
2022/04/02 00:16:07;;;;;;;6.53;3.20;;;;;1.10;94841.00;;;;8344833;28;20239;-64
2022/04/02 00:20:11;;;;;;;12.53;6.70;;;;;1.10;94829.00;;;;8344318;28;20283;-64
2022/04/02 00:24:16;;;;;;;8.20;3.93;;;;;1.10;94829.00;;;;8346445;28;20724;-64
2022/04/02 00:28:19;;;;;;;23.80;8.33;;;;;1.10;94834.00;;;;8353270;28;20232;-66
2022/04/02 00:32:22;;;;;;;7.30;3.73;;;;;1.10;94839.00;;;;8351823;28;20719;-64
2022/04/02 00:36:34;;;;;;;9.57;4.80;;;;;1.10;94835.00;;;;8352606;28;20619;-67
2022/04/02 00:40:42;;;;;;;8.10;3.03;;;;;1.10;94836.00;;;;8343105;28;20278;-65
2022/04/02 00:44:45;;;;;;;6.03;3.83;;;;;1.10;94845.00;;;;8353570;28;20902;-64
2022/04/02 00:48:50;;;;;;;12.17;5.73;;;;;1.10;94861.00;;;;8352102;28;20217;-65
2022/04/02 00:52:53;;;;;;;11.23;4.10;;;;;1.10;94856.00;;;;8348295;28;20235;-65
2022/04/02 00:56:57;;;;;;;8.57;4.53;;;;;1.10;94851.00;;;;8347570;28;20228;-67
2022/04/02 01:01:01;;;;;;;6.37;4.73;;;;;1.10;94853.00;;;;8349707;28;20237;-63
2022/04/02 01:05:05;;;;;;;11.53;4.33;;;;;1.10;94851.00;;;;8350399;28;20238;-64
2022/04/02 01:09:09;;;;;;;2.77;2.57;;;;;1.10;94855.00;;;;8352656;28;20236;-63
2022/04/02 01:13:14;;;;;;;8.53;2.53;;;;;1.10;94861.00;;;;8349336;28;20241;-63
2022/04/02 01:17:18;;;;;;;9.57;5.20;;;;;1.00;94867.00;;;;8350240;28;20232;-63
2022/04/02 01:21:21;;;;;;;5.73;3.23;;;;;1.00;94873.00;;;;8350694;28;20235;-63
2022/04/02 01:25:31;;;;;;;11.67;3.90;;;;;1.00;94866.00;;;;8351518;28;20224;-64
2022/04/02 01:29:35;;;;;;;4.80;3.30;;;;;1.00;94868.00;;;;8352637;28;20879;-63
2022/04/02 01:33:38;;;;;;;6.33;3.67;;;;;0.90;94881.00;;;;8349393;28;20224;-63
2022/04/02 01:37:41;;;;;;;9.77;2.77;;;;;0.90;94880.00;;;;8350956;28;20308;-64
2022/04/02 01:41:46;;;;;;;3.87;3.33;;;;;0.90;94889.00;;;;8351828;28;20327;-64
2022/04/02 01:45:53;;;;;;;3.13;2.63;;;;;0.90;94892.00;;;;8350144;28;20303;-63
2022/04/02 01:49:56;;;;;;;8.57;3.33;;;;;0.80;94887.00;;;;8351903;28;20566;-63
2022/04/02 01:53:59;;;;;;;10.43;3.30;;;;;0.80;94892.00;;;;8351411;28;20319;-63
2022/04/02 01:58:04;;;;;;;8.17;3.90;;;;;0.70;94894.00;;;;8349690;28;20320;-65
2022/04/02 02:02:08;;;;;;;8.43;3.23;;;;;0.80;94891.00;;;;8350667;28;20224;-64
2022/04/02 02:06:12;;;;;;;1.30;1.20;;;;;0.70;94887.00;;;;8345356;28;20227;-63
2022/04/02 02:10:15;;;;;;;8.30;2.43;;;;;0.70;94884.00;;;;8345145;28;20733;-63
2022/04/02 02:14:20;;;;;;;10.83;2.97;;;;;0.70;94882.00;;;;8350937;28;20234;-64
2022/04/02 02:18:23;;;;;;;3.17;2.90;;;;;0.80;94890.00;;;;8345845;28;20790;-64
2022/04/02 02:22:26;;;;;;;9.93;4.07;;;;;0.70;94889.00;;;;8350060;28;20216;-64
2022/04/02 02:26:29;;;;;;;2.33;1.67;;;;;0.80;94897.00;;;;8350085;28;20227;-64
2022/04/02 02:30:34;;;;;;;4.60;2.63;;;;;0.70;94897.00;;;;8348811;28;20226;-63
2022/04/02 02:38:57;;;;;;;7.77;4.10;;;;;0.70;94899.00;;;;8347667;28;20240;-64
2022/04/02 02:43:01;;;;;;;13.57;4.30;;;;;0.70;94899.00;;;;8348774;28;20224;-64
2022/04/02 02:47:06;;;;;;;4.90;1.80;;;;;0.70;94904.00;;;;8337975;28;20239;-64
2022/04/02 02:51:09;;;;;;;10.33;4.23;;;;;0.70;94905.00;;;;8347731;28;20224;-64
2022/04/02 02:55:12;;;;;;;7.03;4.33;;;;;0.70;94901.00;;;;8345986;28;20225;-64
2022/04/02 02:59:16;;;;;;;2.23;2.10;;;;;0.70;94895.00;;;;8348824;28;20251;-64
2022/04/02 03:03:22;;;;;;;8.20;3.23;;;;;0.70;94901.00;;;;8405058;22;20235;-64
2022/04/02 03:07:28;;;;;;;1.43;1.43;;;;;0.80;94901.00;;;;8399153;28;20212;-65
2022/04/02 03:11:32;;;;;;;6.97;2.83;;;;;0.70;94901.00;;;;8400634;28;20285;-65
2022/04/02 03:15:35;;;;;;;10.17;2.60;;;;;0.80;94904.00;;;;8402878;28;20635;-66
2022/04/02 03:19:39;;;;;;;2.63;2.40;;;;;0.80;94911.00;;;;8405157;28;20273;-65
2022/04/02 03:23:43;;;;;;;13.37;5.33;;;;;0.80;94910.00;;;;8403960;28;20219;-65
2022/04/02 03:27:47;;;;;;;3.07;1.87;;;;;0.70;94910.00;;;;8398297;28;20316;-67
2022/04/02 03:31:50;;;;;;;5.57;3.53;;;;;0.70;94914.00;;;;8395207;28;20220;-66
2022/04/02 03:35:55;;;;;;;10.13;3.07;;;;;0.70;94921.00;;;;8406653;28;20225;-66
2022/04/02 03:39:59;;;;;;;5.40;2.43;;;;;0.70;94929.00;;;;8406640;28;20234;-66
2022/04/02 03:44:02;;;;;;;4.33;2.53;;;;;0.70;94922.00;;;;8403941;28;20220;-66
2022/04/02 03:48:06;;;;;;;2.13;1.97;;;;;0.70;94927.00;;;;8397719;28;20251;-65
2022/04/02 03:52:11;;;;;;;4.33;2.60;;;;;0.70;94935.00;;;;8402189;28;20983;-65
2022/04/02 03:56:15;;;;;;;4.30;3.47;;;;;0.70;94938.00;;;;8398527;28;20230;-66
2022/04/02 04:00:19;;;;;;;8.80;3.63;;;;;0.60;94941.00;;;;8403841;28;20688;-65
2022/04/02 04:04:22;;;;;;;7.73;3.73;;;;;0.60;94942.00;;;;8404315;28;20899;-65
2022/04/02 04:08:27;;;;;;;1.77;1.67;;;;;0.60;94946.00;;;;8395369;28;20232;-66
2022/04/02 04:12:30;;;;;;;12.63;4.30;;;;;0.60;94946.00;;;;8402619;28;20318;-65
2022/04/02 04:16:38;;;;;;;3.80;1.73;;;;;0.60;94962.00;;;;8403671;28;20314;-64
2022/04/02 04:20:41;;;;;;;5.97;3.27;;;;;0.50;94960.00;;;;8395300;28;20846;-65
2022/04/02 04:24:46;;;;;;;5.17;2.53;;;;;0.60;94964.00;;;;8397832;28;20224;-64
2022/04/02 04:28:49;;;;;;;6.00;1.40;;;;;0.50;94966.00;;;;8398637;28;20620;-66
2022/04/02 04:32:52;;;;;;;9.83;4.07;;;;;0.50;94955.00;;;;8403144;28;20230;-64
2022/04/02 04:36:55;;;;;;;8.97;1.77;;;;;0.50;94964.00;;;;8401249;28;20702;-67
2022/04/02 04:41:02;;;;;;;6.70;4.43;;;;;0.50;94964.00;;;;8395829;28;20338;-65
2022/04/02 04:45:05;;;;;;;14.47;5.67;;;;;0.50;94978.00;;;;8400496;28;20362;-64
2022/04/02 04:49:09;;;;;;;6.30;3.43;;;;;0.50;94969.00;;;;8409843;28;20696;-65
2022/04/02 04:53:20;;;;;;;20.60;3.73;;;;;0.50;94963.00;;;;8401078;28;20332;-65
2022/04/02 04:57:35;;;;;;;1.47;1.37;;;;;0.50;94983.00;;;;8379197;28;20232;-66
2022/04/02 05:01:43;;;;;;;3.60;2.03;;;;;0.50;94990.00;;;;8393608;28;20227;-65
2022/04/02 05:05:47;;;;;;;6.90;3.47;;;;;0.60;94991.00;;;;8402415;28;20225;-65
2022/04/02 05:09:50;;;;;;;4.80;2.87;;;;;0.60;94999.00;;;;8399708;28;20216;-66
2022/04/02 05:13:55;;;;;;;9.67;3.60;;;;;0.60;94997.00;;;;8402377;28;20325;-66
2022/04/02 05:17:58;;;;;;;5.23;3.07;;;;;0.70;95002.00;;;;8395191;28;20970;-65
2022/04/02 05:22:02;;;;;;;5.17;3.43;;;;;0.70;95012.00;;;;8402998;28;20259;-66
2022/04/02 05:26:06;;;;;;;32.60;5.10;;;;;0.80;95010.00;;;;8404169;28;20224;-65
2022/04/02 05:30:12;;;;;;;13.63;5.73;;;;;0.80;95019.00;;;;8410571;28;20242;-67
2022/04/02 05:34:16;;;;;;;2.77;1.70;;;;;0.90;95013.00;;;;8409951;28;20662;-67
2022/04/02 05:38:20;;;;;;;24.17;5.93;;;;;0.90;95026.00;;;;8413835;28;20634;-66
2022/04/02 05:42:23;;;;;;;7.10;3.07;;;;;0.90;95032.00;;;;8408783;28;20688;-67
2022/04/02 05:46:29;;;;;;;7.83;5.10;;;;;0.90;95031.00;;;;8406766;28;20226;-66
2022/04/02 05:50:33;;;;;;;7.90;5.40;;;;;0.90;95021.00;;;;8410115;28;20232;-66
2022/04/02 05:54:42;;;;;;;8.87;2.10;;;;;1.00;95040.00;;;;8406417;28;20280;-66
2022/04/02 05:58:45;;;;;;;3.60;2.40;;;;;1.00;95038.00;;;;8409294;28;20298;-66
2022/04/02 06:02:50;;;;;;;14.03;5.33;;;;;1.00;95040.00;;;;8404863;28;20242;-66
2022/04/02 06:06:55;;;;;;;5.23;3.10;;;;;1.00;95048.00;;;;8400082;28;20921;-68
2022/04/02 06:10:59;;;;;;;15.57;6.43;;;;;1.00;95059.00;;;;8402001;28;20588;-67
2022/04/02 06:15:02;;;;;;;13.77;4.53;;;;;1.10;95057.00;;;;8402978;28;20338;-68
2022/04/02 06:19:07;;;;;;;4.47;3.17;;;;;1.10;95057.00;;;;8397962;28;20763;-67
2022/04/02 06:23:10;;;;;;;6.13;3.97;;;;;1.20;95059.00;;;;8385228;28;20224;-67
2022/04/02 06:27:13;;;;;;;14.23;4.00;;;;;1.20;95065.00;;;;8402831;28;20212;-68
2022/04/02 06:31:17;;;;;;;49.57;5.30;;;;;1.30;95068.00;;;;8402925;28;20255;-67
2022/04/02 06:35:21;;;;;;;5.63;3.23;;;;;1.30;95075.00;;;;8392502;28;20216;-67
2022/04/02 06:39:25;;;;;;;3.40;1.83;;;;;1.40;95077.00;;;;8408012;28;20338;-68
2022/04/02 06:43:28;;;;;;;3.67;3.33;;;;;1.30;95080.00;;;;8395903;28;21035;-68
2022/04/02 06:47:33;;;;;;;10.03;5.37;;;;;1.30;95079.00;;;;8399955;28;20231;-69
2022/04/02 06:51:38;;;;;;;26.13;8.53;;;;;1.40;95086.00;;;;8405378;28;20587;-70
2022/04/02 06:55:41;;;;;;;15.43;8.20;;;;;1.40;95083.00;;;;8401916;28;20909;-70
2022/04/02 06:59:47;;;;;;;1.80;1.70;;;;;1.50;95084.00;;;;8385851;28;20283;-69
2022/04/02 07:03:58;;;;;;;11.13;5.90;;;;;1.60;95100.00;;;;8390119;28;20235;-69
2022/04/02 07:08:08;;;;;;;12.93;5.97;;;;;1.70;95106.00;;;;8395577;28;20235;-69
2022/04/02 07:12:18;;;;;;;10.23;4.70;;;;;1.70;95105.00;;;;8368882;28;20257;-68
2022/04/02 07:16:23;;;;;;;2.43;2.00;;;;;1.80;95115.00;;;;8380394;28;20575;-69
2022/04/02 07:20:28;;;;;;;10.90;5.73;;;;;1.80;95125.00;;;;8397162;28;20251;-70
2022/04/02 07:24:33;;;;;;;9.30;4.93;;;;;1.90;95126.00;;;;8404810;28;20658;-70
2022/04/02 07:28:38;;;;;;;15.40;7.43;;;;;1.90;95129.00;;;;8400732;28;20215;-70
2022/04/02 07:32:46;;;;;;;4.50;3.83;;;;;1.90;95140.00;;;;8407174;28;20260;-71
2022/04/02 07:36:58;;;;;;;9.17;4.10;;;;;1.90;95141.00;;;;8406019;28;20273;-71
2022/04/02 07:41:10;;;;;;;14.77;6.77;;;;;2.00;95146.00;;;;8393498;28;20235;-72
2022/04/02 07:45:14;;;;;;;9.07;4.73;;;;;2.00;95162.00;;;;8407384;28;20312;-70
2022/04/02 07:49:21;;;;;;;14.57;7.70;;;;;1.90;95163.00;;;;8395503;28;20323;-72
2022/04/02 07:53:25;;;;;;;15.33;9.07;;;;;1.90;95169.00;;;;8396043;28;20294;-70
2022/04/02 07:57:38;;;;;;;8.40;4.00;;;;;1.90;95168.00;;;;8403243;28;20383;-71
2022/04/02 08:01:43;;;;;;;13.70;7.27;;;;;1.90;95175.00;;;;8400037;28;20319;-72
2022/04/02 08:05:47;;;;;;;8.03;4.33;;;;;1.90;95185.00;;;;8395608;28;20232;-71
2022/04/02 08:09:51;;;;;;;8.73;3.33;;;;;2.00;95190.00;;;;8401825;28;20719;-73
2022/04/02 08:13:58;;;;;;;9.00;5.90;;;;;2.00;95184.00;;;;8395059;28;20222;-74
2022/04/02 08:18:03;;;;;;;10.63;5.20;;;;;2.10;95194.00;;;;8405845;28;20219;-74
2022/04/02 08:22:06;;;;;;;14.00;7.23;;;;;2.10;95191.00;;;;8396862;28;20235;-74
2022/04/02 08:26:22;;;;;;;11.67;3.90;;;;;2.10;95198.00;;;;8393473;28;21017;-73
2022/04/02 08:30:33;;;;;;;9.83;4.63;;;;;2.20;95206.00;;;;8395739;28;20223;-73
2022/04/02 08:35:02;;;;;;;4.57;3.43;;;;;2.30;95211.00;;;;8408637;28;20256;-75
2022/04/02 08:39:09;;;;;;;14.13;6.00;;;;;2.30;95211.00;;;;8391665;28;20307;-74
2022/04/02 08:43:59;;;;;;;9.17;3.87;;;;;2.30;95208.00;;;;8405078;28;20672;-76
2022/04/02 08:48:24;;;;;;;8.50;3.30;;;;;2.40;95212.00;;;;8403796;28;20564;-73
2022/04/02 08:52:43;;;;;;;6.97;5.27;;;;;2.40;95217.00;;;;8413663;28;20290;-75
2022/04/02 08:56:49;;;;;;;12.57;5.53;;;;;2.40;95228.00;;;;8401511;28;20230;-74
2022/04/02 09:01:07;;;;;;;12.17;6.37;;;;;2.40;95239.00;;;;8396901;28;20224;-74
2022/04/02 09:05:22;;;;;;;9.37;6.33;;;;;2.40;95253.00;;;;8395166;28;20285;-74
2022/04/02 09:09:44;;;;;;;8.87;5.47;;;;;2.40;95252.00;;;;8403928;28;20647;-76
2022/04/02 09:14:12;;;;;;;7.93;4.60;;;;;2.40;95266.00;;;;8393508;28;20223;-83
2022/04/02 09:18:30;;;;;;;6.50;3.87;;;;;2.30;95263.00;;;;8405183;28;20239;-86
2022/04/02 09:22:42;;;;;;;9.57;5.60;;;;;2.30;95273.00;;;;8398259;28;20226;-80
2022/04/02 09:27:13;;;;;;;7.33;4.33;;;;;2.30;95278.00;;;;8404353;28;20227;-72
2022/04/02 09:31:56;;;;;;;6.13;3.67;;;;;2.30;95292.00;;;;8400419;28;20213;-70
2022/04/02 09:36:29;;;;;;;8.83;4.30;;;;;2.30;95287.00;;;;8408081;28;20245;-72
2022/04/02 09:40:43;;;;;;;13.90;4.93;;;;;2.30;95299.00;;;;8400768;28;20226;-72
2022/04/02 09:44:59;;;;;;;9.40;5.30;;;;;2.40;95308.00;;;;8381808;28;20227;-71
2022/04/02 09:49:16;;;;;;;6.60;4.43;;;;;2.40;95308.00;;;;8399194;28;20307;-71
2022/04/02 09:53:25;;;;;;;7.73;4.93;;;;;2.40;95303.00;;;;8388076;28;20245;-70
2022/04/02 09:57:46;;;;;;;8.50;5.43;;;;;2.40;95308.00;;;;8402531;28;20306;-70
2022/04/02 10:01:59;;;;;;;12.57;6.03;;;;;2.50;95316.00;;;;8401591;28;20211;-70
2022/04/02 10:06:20;;;;;;;13.83;5.03;;;;;2.50;95315.00;;;;8399801;28;20226;-69
2022/04/02 10:10:26;;;;;;;11.47;7.40;;;;;2.50;95313.00;;;;8398699;28;20244;-69
2022/04/02 10:14:34;;;;;;;10.53;7.10;;;;;2.50;95323.00;;;;8400315;28;20217;-68
2022/04/02 10:18:37;;;;;;;5.87;5.03;;;;;2.50;95329.00;;;;8403021;28;20233;-69
2022/04/02 10:22:43;;;;;;;4.20;3.30;;;;;2.50;95330.00;;;;8385272;28;20316;-69
2022/04/02 10:26:51;;;;;;;11.33;5.37;;;;;2.60;95338.00;;;;8390915;28;20324;-70
2022/04/02 10:30:58;;;;;;;13.83;5.13;;;;;2.60;95340.00;;;;8393307;28;20282;-67
2022/04/02 10:35:06;;;;;;;4.90;4.33;;;;;2.60;95344.00;;;;8401553;28;20225;-70
2022/04/02 10:39:24;;;;;;;12.80;4.73;;;;;2.60;95341.00;;;;8402670;28;20646;-69
2022/04/02 10:43:34;;;;;;;5.20;3.33;;;;;2.60;95344.00;;;;8392610;28;20237;-70
2022/04/02 10:47:44;;;;;;;5.13;3.67;;;;;2.70;95350.00;;;;8395817;28;20227;-71
2022/04/02 10:51:53;;;;;;;9.50;5.07;;;;;2.70;95351.00;;;;8395680;28;20226;-67
2022/04/02 10:56:01;;;;;;;8.83;3.00;;;;;2.70;95357.00;;;;8402060;28;20489;-67
2022/04/02 11:00:07;;;;;;;2.37;2.17;;;;;2.70;95351.00;;;;8385888;28;20222;-68
2022/04/02 11:04:31;;;;;;;4.03;3.60;;;;;2.70;95356.00;;;;8403486;28;20221;-68
2022/04/02 11:08:34;;;;;;;5.40;3.57;;;;;2.70;95357.00;;;;8409649;28;20307;-69
2022/04/02 11:12:41;;;;;;;4.13;3.17;;;;;2.80;95364.00;;;;8382450;28;20330;-71
2022/04/02 11:16:45;;;;;;;6.27;3.67;;;;;2.80;95365.00;;;;8401491;28;20220;-67
2022/04/02 11:20:51;;;;;;;8.67;4.70;;;;;2.80;95369.00;;;;8375335;28;20295;-68
2022/04/02 11:25:02;;;;;;;5.57;3.97;;;;;2.80;95371.00;;;;8381359;28;20226;-69
2022/04/02 11:29:09;;;;;;;9.33;4.33;;;;;2.80;95376.00;;;;8395958;28;20225;-67
2022/04/02 11:33:15;;;;;;;7.30;4.97;;;;;2.80;95380.00;;;;8400553;28;20623;-68
2022/04/02 11:37:26;;;;;;;6.30;3.00;;;;;2.80;95386.00;;;;8391652;28;20224;-70
2022/04/02 11:41:34;;;;;;;9.20;4.23;;;;;2.80;95388.00;;;;8392553;28;20242;-68
2022/04/02 11:45:38;;;;;;;6.57;4.67;;;;;2.80;95391.00;;;;8403980;28;20309;-71
2022/04/02 11:49:43;;;;;;;16.80;6.23;;;;;2.80;95383.00;;;;8400433;28;20690;-72
2022/04/02 11:53:48;;;;;;;4.73;3.57;;;;;2.80;95387.00;;;;8383144;28;20795;-67
2022/04/02 11:57:58;;;;;;;9.27;3.23;;;;;2.90;95397.00;;;;8405312;28;20222;-69
2022/04/02 12:02:02;;;;;;;3.07;2.33;;;;;2.90;95407.00;;;;8396202;28;20280;-69
2022/04/02 12:06:11;;;;;;;4.23;3.50;;;;;2.90;95401.00;;;;8403838;28;20222;-69
2022/04/02 12:10:17;;;;;;;3.27;2.63;;;;;2.90;95401.00;;;;8394451;28;20223;-70
2022/04/02 12:14:31;;;;;;;4.57;3.10;;;;;2.90;95408.00;;;;8397487;28;20319;-69
2022/04/02 12:18:34;;;;;;;2.83;2.50;;;;;2.90;95410.00;;;;8402707;28;20229;-71
2022/04/02 12:22:40;;;;;;;6.33;3.37;;;;;3.00;95419.00;;;;8408334;28;20842;-71
2022/04/02 12:26:48;;;;;;;2.50;2.03;;;;;2.90;95414.00;;;;8409771;28;20314;-68
2022/04/02 12:30:53;;;;;;;21.17;6.27;;;;;3.00;95416.00;;;;8409322;28;21008;-71
2022/04/02 12:35:00;;;;;;;3.27;2.30;;;;;3.00;95423.00;;;;8405920;28;20235;-70
2022/04/02 12:39:06;;;;;;;4.47;3.00;;;;;3.00;95419.00;;;;8410180;28;20266;-73
2022/04/02 12:43:11;;;;;;;6.33;4.10;;;;;3.00;95431.00;;;;8411225;28;20240;-72
2022/04/02 12:47:18;;;;;;;4.27;3.43;;;;;3.00;95433.00;;;;8406518;28;20230;-72
2022/04/02 12:51:23;;;;;;;7.57;4.00;;;;;3.00;95435.00;;;;8408987;28;20316;-73
2022/04/02 12:55:29;;;;;;;11.13;5.73;;;;;3.00;95443.00;;;;8407156;28;20229;-72
2022/04/02 12:59:33;;;;;;;7.60;3.87;;;;;3.00;95445.00;;;;8408538;28;20244;-74
2022/04/02 13:03:43;;;;;;;6.50;3.57;;;;;3.10;95438.00;;;;8417711;28;20845;-72
2022/04/02 13:08:03;;;;;;;12.30;6.10;;;;;3.10;95459.00;;;;8413780;28;20228;-72
2022/04/02 13:12:09;;;;;;;7.30;4.30;;;;;3.10;95450.00;;;;8407740;28;20306;-71
2022/04/02 13:16:15;;;;;;;7.97;4.07;;;;;3.10;95446.00;;;;8411810;28;20251;-70
2022/04/02 13:20:30;;;;;;;5.47;4.33;;;;;3.10;95464.00;;;;8403286;28;20219;-69
2022/04/02 13:24:55;;;;;;;9.93;5.20;;;;;3.00;95466.00;;;;8405495;28;20233;-69
2022/04/02 13:29:18;;;;;;;9.77;5.53;;;;;3.10;95469.00;;;;8400443;28;20320;-69
2022/04/02 13:34:02;;;;;;;6.63;4.83;;;;;3.00;95473.00;;;;8401881;28;20217;-69
2022/04/02 13:38:41;;;;;;;5.00;4.30;;;;;3.00;95477.00;;;;8405186;28;20332;-69
2022/04/02 13:42:50;;;;;;;5.60;4.30;;;;;3.00;95476.00;;;;8405587;28;20610;-68
2022/04/02 13:46:55;;;;;;;4.77;4.17;;;;;3.00;95484.00;;;;8396165;28;20226;-67
2022/04/02 13:51:09;;;;;;;7.87;4.13;;;;;3.00;95482.00;;;;8406751;28;20226;-68
2022/04/02 13:55:19;;;;;;;8.20;5.97;;;;;3.10;95482.00;;;;8401568;28;20238;-68
2022/04/02 13:59:29;;;;;;;8.77;4.97;;;;;3.10;95493.00;;;;8403960;28;20260;-68
2022/04/02 14:03:33;;;;;;;7.43;4.37;;;;;3.10;95492.00;;;;8398144;28;20246;-69
2022/04/02 14:07:53;;;;;;;7.60;3.80;;;;;3.10;95491.00;;;;8401641;28;20270;-69
2022/04/02 14:12:02;;;;;;;6.13;4.23;;;;;3.00;95497.00;;;;8405083;28;20225;-69
2022/04/02 14:16:06;;;;;;;7.40;4.63;;;;;3.00;95500.00;;;;8401495;28;20245;-69
2022/04/02 14:20:12;;;;;;;8.33;4.63;;;;;3.10;95501.00;;;;8414622;28;20234;-68
2022/04/02 14:24:23;;;;;;;6.50;4.30;;;;;3.10;95512.00;;;;8399141;28;20249;-68
2022/04/02 14:28:43;;;;;;;8.27;5.37;;;;;3.10;95511.00;;;;8406257;28;20313;-68
2022/04/02 14:33:23;;;;;;;12.00;6.13;;;;;3.10;95512.00;;;;8395609;28;20240;-67
2022/04/02 14:37:54;;;;;;;5.90;4.23;;;;;3.10;95513.00;;;;8406284;28;20222;-68
2022/04/02 14:42:10;;;;;;;6.83;4.60;;;;;3.10;95517.00;;;;8397038;28;20237;-68
2022/04/02 14:46:55;;;;;;;5.73;3.77;;;;;3.10;95517.00;;;;8404257;28;20220;-68
2022/04/02 14:51:52;;;;;;;8.50;4.40;;;;;3.10;95522.00;;;;8360108;28;20242;-68
2022/04/02 14:56:35;;;;;;;6.83;4.27;;;;;3.00;95514.00;;;;8309404;28;20230;-68
2022/04/02 15:01:12;;;;;;;7.73;4.20;;;;;3.00;95527.00;;;;8405285;28;20217;-68
2022/04/02 15:05:37;;;;;;;8.90;5.37;;;;;3.00;95528.00;;;;8396362;28;20256;-70
2022/04/02 15:10:02;;;;;;;7.87;5.30;;;;;3.10;95538.00;;;;8399890;28;20245;-69
2022/04/02 15:14:11;;;;;;;9.60;5.73;;;;;3.10;95547.00;;;;8394294;28;20237;-70
2022/04/02 15:18:22;;;;;;;9.13;4.00;;;;;3.10;95542.00;;;;8389708;28;20789;-70
2022/04/02 15:22:27;;;;;;;11.63;5.70;;;;;3.10;95551.00;;;;8394171;28;20375;-71
2022/04/02 15:26:30;;;;;;;6.83;4.57;;;;;3.10;95557.00;;;;8394929;28;21264;-70
2022/04/02 15:30:36;;;;;;;10.47;5.27;;;;;3.10;95565.00;;;;8387490;28;20573;-71
2022/04/02 15:34:51;;;;;;;11.83;5.87;;;;;3.10;95559.00;;;;8390331;28;20314;-70
2022/04/02 15:38:56;;;;;;;18.77;9.73;;;;;3.10;95565.00;;;;8386195;28;20236;-69
2022/04/02 15:43:02;;;;;;;15.90;7.97;;;;;3.10;95572.00;;;;8395918;28;20235;-69
2022/04/02 15:47:36;;;;;;;7.80;5.33;;;;;3.10;95579.00;;;;8400227;28;20230;-73
2022/04/02 15:52:18;;;;;;;17.77;7.93;;;;;3.00;95580.00;;;;8396114;28;20263;-73
2022/04/02 15:56:21;;;;;;;10.53;5.67;;;;;3.00;95597.00;;;;8395308;28;20223;-75
2022/04/02 16:00:25;;;;;;;10.97;5.93;;;;;3.00;95593.00;;;;8399239;28;20248;-74
2022/04/02 16:04:28;;;;;;;11.37;4.97;;;;;3.10;95603.00;;;;8392078;28;20713;-76
2022/04/02 16:08:33;;;;;;;5.20;3.30;;;;;3.10;95602.00;;;;8389692;28;20229;-74
2022/04/02 16:12:39;;;;;;;6.30;3.40;;;;;3.00;95606.00;;;;8395816;28;20309;-74
2022/04/02 16:17:08;;;;;;;5.93;4.20;;;;;3.10;95607.00;;;;8400444;28;20257;-73
2022/04/02 16:21:20;;;;;;;4.27;3.87;;;;;3.00;95616.00;;;;8397524;28;20222;-73
2022/04/02 16:25:24;;;;;;;4.73;3.90;;;;;3.00;95617.00;;;;8407801;28;20312;-74
2022/04/02 16:29:28;;;;;;;6.17;3.67;;;;;3.00;95629.00;;;;8405436;28;20226;-78
2022/04/02 16:33:33;;;;;;;6.27;4.67;;;;;3.00;95623.00;;;;8394614;28;20742;-79
2022/04/02 16:37:36;;;;;;;2.77;2.57;;;;;3.00;95626.00;;;;8400948;28;20236;-72
2022/04/02 16:41:44;;;;;;;5.87;3.53;;;;;3.00;95647.00;;;;8405971;28;20662;-72
2022/04/02 16:46:04;;;;;;;2.37;2.17;;;;;3.00;95645.00;;;;8399363;28;20230;-71
2022/04/02 16:50:13;;;;;;;4.53;4.00;;;;;3.10;95651.00;;;;8404856;28;20248;-71
2022/04/02 16:54:16;;;;;;;3.07;2.80;;;;;3.10;95655.00;;;;8397763;28;20650;-70
2022/04/02 16:58:21;;;;;;;2.03;1.83;;;;;3.10;95670.00;;;;8407530;28;20783;-70
2022/04/02 17:02:34;;;;;;;9.67;4.50;;;;;3.10;95675.00;;;;8404908;28;20250;-70
2022/04/02 17:06:37;;;;;;;8.13;3.85;;;;;3.00;95681.00;;;;8408693;28;20557;-69
2022/04/02 17:10:41;;;;;;;4.40;2.80;;;;;3.20;95690.00;;;;8405727;28;20237;-70
2022/04/02 17:14:45;;;;;;;2.70;2.03;;;;;3.10;95684.00;;;;8411454;28;20235;-70
2022/04/02 17:18:48;;;;;;;2.23;1.80;;;;;3.10;95695.00;;;;8414039;28;20225;-70
2022/04/02 17:22:52;;;;;;;6.00;2.93;;;;;3.10;95701.00;;;;8409368;28;20305;-69
2022/04/02 17:27:08;;;;;;;3.40;2.80;;;;;3.10;95709.00;;;;8408210;28;20234;-71
2022/04/02 17:31:27;;;;;;;3.57;3.27;;;;;3.10;95705.00;;;;8413105;28;20221;-69
2022/04/02 17:35:32;;;;;;;2.37;1.60;;;;;3.10;95708.00;;;;8406921;28;20754;-70
2022/04/02 17:39:36;;;;;;;2.27;1.97;;;;;3.10;95721.00;;;;8405609;28;20242;-69
2022/04/02 17:43:41;;;;;;;2.03;1.83;;;;;3.10;95722.00;;;;8397950;28;20232;-68
2022/04/02 17:47:47;;;;;;;5.00;2.57;;;;;3.10;95724.00;;;;8405825;28;20252;-69
2022/04/02 17:51:50;;;;;;;3.80;2.10;;;;;3.10;95728.00;;;;8405482;28;20322;-68
2022/04/02 17:56:04;;;;;;;4.17;2.27;;;;;3.10;95728.00;;;;8407510;28;20322;-69
2022/04/02 18:00:09;;;;;;;4.17;3.10;;;;;3.10;95740.00;;;;8395588;28;20226;-69
2022/04/02 18:04:16;;;;;;;3.40;2.50;;;;;3.10;95747.00;;;;8399500;28;20243;-68
2022/04/02 18:08:20;;;;;;;1.97;1.77;;;;;3.10;95763.00;;;;8405326;28;20820;-67
2022/04/02 18:12:23;;;;;;;2.93;2.60;;;;;3.10;95772.00;;;;8405152;28;20227;-67
2022/04/02 18:16:29;;;;;;;6.13;2.23;;;;;3.00;95774.00;;;;8404684;28;20229;-68
2022/04/02 18:20:34;;;;;;;2.80;2.20;;;;;3.00;95776.00;;;;8401578;28;20228;-67
2022/04/02 18:24:39;;;;;;;7.27;2.80;;;;;3.10;95781.00;;;;8401098;28;20256;-66
2022/04/02 18:28:42;;;;;;;2.17;2.00;;;;;3.00;95791.00;;;;8396219;28;20237;-67
2022/04/02 18:32:47;;;;;;;1.10;1.10;;;;;3.10;95797.00;;;;8393919;28;20237;-66
2022/04/02 18:36:52;;;;;;;3.37;3.07;;;;;3.10;95804.00;;;;8393215;28;20230;-67
2022/04/02 18:40:58;;;;;;;2.27;2.17;;;;;3.10;95810.00;;;;8402626;28;20229;-67
2022/04/02 18:45:07;;;;;;;1.90;1.67;;;;;3.10;95816.00;;;;8401817;28;20715;-68
2022/04/02 18:49:11;;;;;;;0.63;0.63;;;;;3.10;95830.00;;;;8397227;28;20214;-68
2022/04/02 18:53:16;;;;;;;0.57;0.57;;;;;3.20;95835.00;;;;8409669;28;20749;-68
2022/04/02 18:57:19;;;;;;;0.93;0.93;;;;;3.10;95842.00;;;;8407484;28;20235;-68
2022/04/02 19:01:22;;;;;;;2.17;1.97;;;;;3.20;95851.00;;;;8411592;28;20222;-67
2022/04/02 19:05:26;;;;;;;0.50;0.50;;;;;3.20;95857.00;;;;8409261;28;20251;-68
2022/04/02 19:09:30;;;;;;;0.30;0.30;;;;;3.20;95861.00;;;;8404038;28;20351;-68
2022/04/02 19:13:34;;;;;;;1.70;1.60;;;;;3.20;95869.00;;;;8397985;28;20240;-68
2022/04/02 19:17:38;;;;;;;2.77;2.23;;;;;3.20;95871.00;;;;8403347;28;20569;-68
2022/04/02 19:21:41;;;;;;;1.40;1.40;;;;;3.20;95874.00;;;;8404610;28;20225;-68
2022/04/02 19:25:53;;;;;;;6.40;2.50;;;;;3.10;95876.00;;;;8384190;28;20234;-67
2022/04/02 19:30:01;;;;;;;1.00;1.00;;;;;3.10;95884.00;;;;8388445;28;20371;-67
2022/04/02 19:34:04;;;;;;;0.70;0.70;;;;;3.10;95890.00;;;;8397012;28;20222;-67
2022/04/02 19:38:08;;;;;;;3.10;1.47;;;;;3.20;95899.00;;;;8401939;28;20332;-68
2022/04/02 19:42:14;;;;;;;0.40;0.40;;;;;3.20;95906.00;;;;8406558;28;20270;-68
2022/04/02 19:46:17;;;;;;;2.20;2.10;;;;;3.20;95902.00;;;;8408058;28;20233;-65
2022/04/02 19:50:20;;;;;;;2.00;1.90;;;;;3.10;95911.00;;;;8396958;28;20253;-66
2022/04/02 19:54:23;;;;;;;2.10;2.00;;;;;3.10;95905.00;;;;8401526;28;20234;-66
2022/04/02 19:58:28;;;;;;;1.73;1.63;;;;;3.10;95911.00;;;;8400418;28;20611;-67
2022/04/02 20:02:31;;;;;;;2.83;2.40;;;;;3.10;95911.00;;;;8393438;28;20228;-65
2022/04/02 20:06:35;;;;;;;4.40;3.37;;;;;3.10;95913.00;;;;8397156;28;20649;-67
2022/04/02 20:10:39;;;;;;;1.97;1.87;;;;;3.10;95914.00;;;;8405896;28;20228;-66
2022/04/02 20:14:43;;;;;;;4.83;2.83;;;;;3.10;95917.00;;;;8401977;28;20702;-66
2022/04/02 20:18:47;;;;;;;3.73;3.00;;;;;3.10;95916.00;;;;8398748;28;20231;-66
2022/04/02 20:22:51;;;;;;;1.70;1.60;;;;;3.00;95922.00;;;;8396440;28;20732;-67
2022/04/02 20:26:55;;;;;;;2.23;2.10;;;;;3.00;95930.00;;;;8393944;28;20249;-66
2022/04/02 20:31:00;;;;;;;1.30;1.20;;;;;3.00;95919.00;;;;8393148;28;20238;-67
2022/04/02 20:35:03;;;;;;;3.53;3.10;;;;;3.00;95923.00;;;;8394591;28;20644;-67
2022/04/02 20:39:12;;;;;;;3.10;2.67;;;;;3.00;95928.00;;;;8386797;28;20313;-67
2022/04/02 20:43:22;;;;;;;4.37;3.20;;;;;3.00;95931.00;;;;8361952;28;20230;-65
2022/04/02 20:47:30;;;;;;;7.70;2.93;;;;;3.00;95935.00;;;;8373321;28;20258;-66
2022/04/02 20:51:34;;;;;;;1.67;1.33;;;;;3.00;95932.00;;;;8399127;28;20895;-66
2022/04/02 20:55:38;;;;;;;2.13;1.93;;;;;3.10;95940.00;;;;8398996;28;20226;-66
2022/04/02 20:59:47;;;;;;;3.00;2.70;;;;;3.10;95946.00;;;;8389487;28;22546;-66
2022/04/02 21:03:55;;;;;;;2.67;2.30;;;;;3.10;95946.00;;;;8379497;28;20231;-65